Time;durP1;ratioP1;P1;durP2;ratioP2;P2;SDS_P1;SDS_P2;PMS_P1;PMS_P2;Temp;Humidity;BMP_temperature;BMP_pressure;BME280_temperature;BME280_humidity;BME280_pressure;Samples;Min_cycle;Max_cycle;Signal;HPM_P1;HPM_P2
2023/02/01 00:01:28;;;;;;;5.40;3.03;;;4.20;99.90;;;;;;4986513;28;20218;-72
2023/02/01 00:03:53;;;;;;;3.83;2.60;;;4.20;99.90;;;;;;5004983;28;20531;-70
2023/02/01 00:06:19;;;;;;;4.97;3.70;;;4.20;99.90;;;;;;5004885;28;20245;-72
2023/02/01 00:08:44;;;;;;;5.03;3.03;;;4.20;99.90;;;;;;4995784;28;20220;-72
2023/02/01 00:11:11;;;;;;;3.30;3.00;;;4.10;99.90;;;;;;5004793;28;20238;-71
2023/02/01 00:13:39;;;;;;;2.73;2.50;;;4.20;99.90;;;;;;4997228;28;20181;-72
2023/02/01 00:16:12;;;;;;;3.57;2.77;;;4.20;99.90;;;;;;5004757;28;20428;-72
2023/02/01 00:18:38;;;;;;;3.70;2.83;;;4.30;99.90;;;;;;4997403;28;20732;-72
2023/02/01 00:21:04;;;;;;;38.37;17.40;;;4.30;99.90;;;;;;5004344;28;20456;-71
2023/02/01 00:23:34;;;;;;;3.97;1.90;;;4.30;99.90;;;;;;5001488;28;20520;-72
2023/02/01 00:26:01;;;;;;;1.77;1.57;;;4.30;99.90;;;;;;5001129;28;20430;-72
2023/02/01 00:28:27;;;;;;;4.97;2.50;;;4.30;99.90;;;;;;5003568;28;20524;-72
2023/02/01 00:31:00;;;;;;;2.00;1.83;;;4.30;99.90;;;;;;5010460;28;20537;-72
2023/02/01 00:33:26;;;;;;;2.20;2.00;;;4.30;99.90;;;;;;5010185;28;20233;-71
2023/02/01 00:35:57;;;;;;;43.87;35.27;;;4.30;99.90;;;;;;5000903;28;20481;-72
2023/02/01 00:38:22;;;;;;;2.20;2.00;;;4.30;99.90;;;;;;5002582;28;20546;-72
2023/02/01 00:40:48;;;;;;;3.80;1.97;;;4.30;99.90;;;;;;5004245;28;20815;-71
2023/02/01 00:43:13;;;;;;;5.87;2.30;;;4.30;99.90;;;;;;4986317;28;20293;-72
2023/02/01 00:45:39;;;;;;;12.83;3.23;;;4.30;99.90;;;;;;5000620;28;20190;-72
2023/02/01 00:48:04;;;;;;;26.53;24.33;;;4.30;99.90;;;;;;5001006;28;20192;-72
2023/02/01 00:50:30;;;;;;;1.90;1.80;;;4.30;99.90;;;;;;5003119;28;20238;-72
2023/02/01 00:52:55;;;;;;;3.13;2.10;;;4.30;99.90;;;;;;5004116;28;20197;-72
2023/02/01 00:55:21;;;;;;;2.33;2.07;;;4.30;99.90;;;;;;5002590;28;20276;-71
2023/02/01 00:57:46;;;;;;;2.10;1.90;;;4.30;99.90;;;;;;5000467;28;20187;-72
2023/02/01 01:00:12;;;;;;;2.93;2.30;;;4.40;99.90;;;;;;5000579;28;20221;-69
2023/02/01 01:02:38;;;;;;;1.90;1.80;;;4.40;99.90;;;;;;4995859;28;20584;-72
2023/02/01 01:05:03;;;;;;;1.30;1.30;;;4.40;99.90;;;;;;5003714;28;20434;-71
2023/02/01 01:07:29;;;;;;;3.33;2.13;;;4.40;99.90;;;;;;5001547;28;20201;-72
2023/02/01 01:09:55;;;;;;;2.03;1.83;;;4.40;99.90;;;;;;5000263;28;20192;-72
2023/02/01 01:12:20;;;;;;;15.70;14.93;;;4.40;99.90;;;;;;5001327;28;20298;-71
2023/02/01 01:14:46;;;;;;;2.70;1.97;;;4.50;99.90;;;;;;5003357;28;20193;-72
2023/02/01 01:17:11;;;;;;;33.50;23.20;;;4.40;99.90;;;;;;5004006;28;20190;-71
2023/02/01 01:19:37;;;;;;;23.80;21.67;;;4.40;99.90;;;;;;5000293;28;20273;-71
2023/02/01 01:22:02;;;;;;;3.13;1.80;;;4.40;99.90;;;;;;5000468;28;20237;-72
2023/02/01 01:24:28;;;;;;;5.97;2.77;;;4.40;99.90;;;;;;5001216;28;20215;-72
2023/02/01 01:26:53;;;;;;;70.87;64.50;;;4.40;99.90;;;;;;5006243;28;20186;-73
2023/02/01 01:29:19;;;;;;;2.13;1.40;;;4.50;99.90;;;;;;5010261;28;20654;-71
2023/02/01 01:31:44;;;;;;;15.50;5.27;;;4.50;99.90;;;;;;5011251;28;20217;-72
2023/02/01 01:34:10;;;;;;;2.70;1.50;;;4.50;99.90;;;;;;5003305;28;20199;-71
2023/02/01 01:36:35;;;;;;;4.83;1.80;;;4.50;99.90;;;;;;5000389;28;20194;-72
2023/02/01 01:39:01;;;;;;;2.13;1.53;;;4.50;99.90;;;;;;5000113;28;20237;-72
2023/02/01 01:41:30;;;;;;;3.63;2.50;;;4.50;99.90;;;;;;4991806;28;20565;-72
2023/02/01 01:43:59;;;;;;;1.53;1.30;;;4.50;99.90;;;;;;5005537;28;20578;-70
2023/02/01 01:46:27;;;;;;;10.87;1.80;;;4.50;99.90;;;;;;5001275;28;20521;-72
2023/02/01 01:49:03;;;;;;;20.60;19.57;;;4.50;99.90;;;;;;5003567;28;20440;-72
2023/02/01 01:51:31;;;;;;;2.10;1.67;;;4.50;99.90;;;;;;5001335;28;20496;-72
2023/02/01 01:54:20;;;;;;;2.00;1.13;;;4.50;99.90;;;;;;4999870;28;20441;-70
2023/02/01 01:56:52;;;;;;;2.30;1.47;;;4.50;99.90;;;;;;4995781;28;20499;-72
2023/02/01 01:59:17;;;;;;;9.80;9.13;;;4.60;99.90;;;;;;5003066;28;20526;-71
2023/02/01 03:32:21;;;;;;;2.27;1.90;;;4.50;99.90;;;;;;5193584;23;20970;-78
2023/02/01 03:34:47;;;;;;;6.60;4.60;;;4.50;99.90;;;;;;4990803;28;20441;-74
2023/02/01 03:37:21;;;;;;;4.90;2.20;;;4.50;99.90;;;;;;4994286;28;20434;-74
2023/02/01 03:40:19;;;;;;;1.93;1.47;;;4.50;99.90;;;;;;4994353;28;20426;-74
2023/02/01 03:42:50;;;;;;;1.90;1.70;;;4.50;99.90;;;;;;4946507;28;20470;-73
2023/02/01 03:45:34;;;;;;;5.80;3.40;;;4.40;99.90;;;;;;4963384;28;20442;-76
2023/02/01 03:48:02;;;;;;;15.20;14.23;;;4.50;99.90;;;;;;4960923;28;20458;-73
2023/02/01 03:50:29;;;;;;;10.50;7.63;;;4.50;99.90;;;;;;4974370;28;20803;-74
2023/02/01 03:53:01;;;;;;;1.37;1.27;;;4.40;99.90;;;;;;4969086;28;20467;-76
2023/02/01 03:55:27;;;;;;;3.27;2.63;;;4.50;99.90;;;;;;4963568;28;20432;-73
2023/02/01 03:58:01;;;;;;;14.83;1.93;;;4.50;99.90;;;;;;4962414;28;20860;-74
2023/02/01 04:00:27;;;;;;;7.60;6.30;;;4.50;99.90;;;;;;4954842;28;20492;-74
2023/02/01 04:02:53;;;;;;;49.53;46.43;;;4.50;99.90;;;;;;4954930;28;20857;-74
2023/02/01 04:05:19;;;;;;;1.50;1.40;;;4.50;99.90;;;;;;4961248;28;20499;-74
2023/02/01 04:07:45;;;;;;;76.57;70.57;;;4.50;99.90;;;;;;4976183;28;20859;-74
2023/02/01 04:10:12;;;;;;;46.63;39.60;;;4.50;99.90;;;;;;4961028;28;20481;-74
2023/02/01 04:12:38;;;;;;;1.97;1.70;;;4.60;99.90;;;;;;4954953;28;20217;-74
2023/02/01 04:15:04;;;;;;;4.63;1.73;;;4.50;99.90;;;;;;4954888;28;20447;-73
2023/02/01 04:17:30;;;;;;;3.53;1.70;;;4.60;99.90;;;;;;4954947;28;20890;-75
2023/02/01 04:19:55;;;;;;;1.53;1.43;;;4.60;99.90;;;;;;4954918;28;21080;-74
2023/02/01 04:22:21;;;;;;;25.50;23.90;;;4.60;99.90;;;;;;4962996;28;20221;-74
2023/02/01 04:24:46;;;;;;;1.43;1.33;;;4.60;99.90;;;;;;4973295;28;20296;-75
2023/02/01 04:27:12;;;;;;;2.80;1.93;;;4.60;99.90;;;;;;4967706;28;20705;-74
2023/02/01 04:29:37;;;;;;;1.77;1.63;;;4.60;99.90;;;;;;4964245;28;20199;-74
2023/02/01 04:32:03;;;;;;;2.03;1.60;;;4.60;99.90;;;;;;4973299;28;20221;-74
2023/02/01 04:34:29;;;;;;;2.10;1.73;;;4.60;99.90;;;;;;4973571;28;20212;-74
2023/02/01 04:36:54;;;;;;;21.60;20.77;;;4.60;99.90;;;;;;4973634;28;20295;-74
2023/02/01 04:39:20;;;;;;;1.43;1.30;;;4.60;99.90;;;;;;4973781;28;20424;-74
2023/02/01 04:41:45;;;;;;;6.13;2.07;;;4.70;99.90;;;;;;4973066;28;20255;-74
2023/02/01 04:44:16;;;;;;;1.73;1.50;;;4.60;99.90;;;;;;4973284;28;20278;-74
2023/02/01 04:46:42;;;;;;;2.07;1.30;;;4.70;99.90;;;;;;4953942;28;20189;-75
2023/02/01 04:49:12;;;;;;;1.20;1.10;;;4.70;99.90;;;;;;4967503;28;20499;-76
2023/02/01 04:51:38;;;;;;;29.83;26.73;;;4.70;99.90;;;;;;4971367;28;20468;-76
2023/02/01 04:54:03;;;;;;;64.97;59.03;;;4.70;99.90;;;;;;4958856;28;20452;-75
2023/02/01 04:56:29;;;;;;;3.43;1.20;;;4.70;99.90;;;;;;4973159;28;20200;-74
2023/02/01 04:58:55;;;;;;;1.00;1.00;;;4.70;99.90;;;;;;4973245;28;20273;-74
2023/02/01 05:01:21;;;;;;;19.97;18.57;;;4.70;99.90;;;;;;4972759;28;20220;-73
2023/02/01 05:03:47;;;;;;;1.43;1.33;;;4.80;99.90;;;;;;4973025;28;20464;-74
2023/02/01 05:06:12;;;;;;;2.83;1.10;;;4.80;99.90;;;;;;4967696;28;20279;-74
2023/02/01 05:08:38;;;;;;;1.73;1.07;;;4.80;99.90;;;;;;4964178;28;20194;-73
2023/02/01 05:11:03;;;;;;;1.47;1.30;;;4.80;99.90;;;;;;4953873;28;20258;-74
2023/02/01 05:13:47;;;;;;;12.60;11.73;;;4.90;99.90;;;;;;4954023;28;20202;-74
2023/02/01 05:16:13;;;;;;;14.03;12.93;;;4.90;99.90;;;;;;4967933;28;20253;-75
2023/02/01 05:18:39;;;;;;;2.27;1.47;;;4.90;99.90;;;;;;4938196;28;20513;-76
2023/02/01 05:21:05;;;;;;;1.37;1.13;;;4.90;99.90;;;;;;4961571;28;20457;-74
2023/02/01 05:23:30;;;;;;;1.50;1.40;;;4.90;99.90;;;;;;4972099;28;20222;-72
2023/02/01 05:26:00;;;;;;;1.30;1.20;;;4.90;99.90;;;;;;4951952;28;20185;-72
2023/02/01 05:28:26;;;;;;;1.43;1.33;;;4.90;99.90;;;;;;4953095;28;20184;-75
2023/02/01 05:30:52;;;;;;;1.33;1.23;;;4.90;99.90;;;;;;4972031;28;20942;-74
2023/02/01 05:33:17;;;;;;;2.63;1.63;;;5.00;99.90;;;;;;4972952;28;20540;-73
2023/02/01 05:35:43;;;;;;;1.60;1.47;;;5.00;99.90;;;;;;4972474;28;20562;-72
2023/02/01 05:38:08;;;;;;;2.20;1.57;;;5.00;99.90;;;;;;4972700;28;20198;-73
2023/02/01 05:40:34;;;;;;;1.57;1.30;;;5.00;99.90;;;;;;4972588;28;20617;-73
2023/02/01 05:42:59;;;;;;;3.40;2.23;;;5.00;99.90;;;;;;4972280;28;20191;-72
2023/02/01 05:45:25;;;;;;;3.37;2.60;;;5.10;99.90;;;;;;4971864;28;20195;-73
2023/02/01 05:47:50;;;;;;;2.97;2.67;;;5.10;99.90;;;;;;4972561;28;20210;-76
2023/02/01 05:50:16;;;;;;;2.80;1.50;;;5.10;99.90;;;;;;4972653;28;20716;-73
2023/02/01 05:52:42;;;;;;;1.93;1.33;;;5.10;99.90;;;;;;4964644;28;20230;-73
2023/02/01 05:55:08;;;;;;;1.60;1.50;;;5.10;99.90;;;;;;4959201;28;20457;-74
2023/02/01 05:57:33;;;;;;;1.67;1.57;;;5.10;99.90;;;;;;4953632;28;20213;-73
2023/02/01 05:59:59;;;;;;;2.07;1.73;;;5.10;99.90;;;;;;4953348;28;20194;-73
2023/02/01 06:02:24;;;;;;;1.50;1.13;;;5.00;99.90;;;;;;4953213;28;20689;-73
2023/02/01 06:04:50;;;;;;;1.93;1.20;;;5.00;99.90;;;;;;4969109;28;20320;-73
2023/02/01 06:07:16;;;;;;;1.60;1.50;;;4.90;99.90;;;;;;4967202;28;20188;-74
2023/02/01 06:09:42;;;;;;;1.87;1.40;;;4.90;99.90;;;;;;4954789;28;21058;-73
2023/02/01 06:12:08;;;;;;;3.80;3.13;;;4.80;99.90;;;;;;4952791;28;20547;-72
2023/02/01 06:14:33;;;;;;;2.40;2.20;;;4.80;99.90;;;;;;4969257;28;20227;-72
2023/02/01 06:16:59;;;;;;;4.47;1.73;;;4.80;99.90;;;;;;4972224;28;20264;-72
2023/02/01 06:19:24;;;;;;;2.10;1.90;;;4.80;99.90;;;;;;4972197;28;20188;-74
2023/02/01 06:21:50;;;;;;;1.63;1.53;;;4.90;99.90;;;;;;4972059;28;20225;-72
2023/02/01 06:24:16;;;;;;;2.43;1.50;;;4.90;99.90;;;;;;4971935;28;20227;-72
2023/02/01 06:26:41;;;;;;;1.50;1.40;;;4.90;99.90;;;;;;4954212;28;20193;-72
2023/02/01 06:29:10;;;;;;;3.60;2.80;;;4.90;99.90;;;;;;4952786;28;20754;-72
2023/02/01 06:31:35;;;;;;;2.07;1.50;;;5.00;99.90;;;;;;4960546;28;20217;-72
2023/02/01 06:34:02;;;;;;;1.90;1.33;;;5.00;99.90;;;;;;4960251;28;20434;-72
2023/02/01 06:36:28;;;;;;;2.20;1.63;;;5.00;99.90;;;;;;4968223;28;20220;-72
2023/02/01 06:38:56;;;;;;;2.50;1.97;;;5.00;99.90;;;;;;4964123;28;20539;-73
2023/02/01 06:41:22;;;;;;;7.17;1.93;;;5.00;99.90;;;;;;4971683;28;20596;-72
2023/02/01 06:43:48;;;;;;;2.77;2.43;;;5.10;99.90;;;;;;4971444;28;20483;-71
2023/02/01 06:46:14;;;;;;;2.23;2.03;;;5.10;99.90;;;;;;4970971;28;20437;-72
2023/02/01 06:48:39;;;;;;;6.93;1.80;;;5.20;99.90;;;;;;4971472;28;20185;-72
2023/02/01 06:51:05;;;;;;;8.03;2.60;;;5.30;99.90;;;;;;4971430;28;20455;-71
2023/02/01 06:53:31;;;;;;;5.10;2.03;;;5.30;99.90;;;;;;4971834;28;20198;-72
2023/02/01 06:55:58;;;;;;;9.53;2.63;;;5.30;99.90;;;;;;4964370;28;20435;-72
2023/02/01 06:58:27;;;;;;;2.53;1.80;;;5.30;99.90;;;;;;4965588;28;20255;-71
2023/02/01 07:00:53;;;;;;;4.93;2.50;;;5.40;99.90;;;;;;4968555;28;20467;-73
2023/02/01 07:03:19;;;;;;;2.80;2.30;;;5.40;99.90;;;;;;4972790;28;20472;-74
2023/02/01 07:05:44;;;;;;;4.63;2.60;;;5.50;99.90;;;;;;4975658;28;20515;-72
2023/02/01 07:08:10;;;;;;;5.53;2.77;;;5.50;99.90;;;;;;4967503;28;20197;-72
2023/02/01 07:10:35;;;;;;;2.33;2.00;;;5.60;99.90;;;;;;4975422;28;20182;-72
2023/02/01 07:13:01;;;;;;;3.47;2.40;;;5.60;99.90;;;;;;4946356;28;20643;-72
2023/02/01 07:15:26;;;;;;;5.57;2.83;;;5.60;99.90;;;;;;4970899;28;20204;-73
2023/02/01 07:17:54;;;;;;;3.53;2.70;;;5.60;99.90;;;;;;4968073;28;20200;-72
2023/02/01 07:20:20;;;;;;;10.53;3.57;;;5.60;99.90;;;;;;4975473;28;20191;-73
2023/02/01 07:22:46;;;;;;;4.03;2.80;;;5.60;99.90;;;;;;4967477;28;20432;-72
2023/02/01 07:25:11;;;;;;;4.90;2.57;;;5.60;99.90;;;;;;4958547;28;20562;-73
2023/02/01 07:27:37;;;;;;;2.83;2.70;;;5.70;99.90;;;;;;4955892;28;20198;-71
2023/02/01 07:30:04;;;;;;;4.87;2.93;;;5.70;99.90;;;;;;4967866;28;20195;-72
2023/02/01 07:32:30;;;;;;;6.50;3.23;;;5.60;99.90;;;;;;4974897;28;20213;-71
2023/02/01 07:34:56;;;;;;;4.43;2.90;;;5.70;99.90;;;;;;4971681;28;20950;-71
2023/02/01 07:37:23;;;;;;;7.30;3.27;;;5.70;99.90;;;;;;4955590;28;20673;-72
2023/02/01 07:39:50;;;;;;;3.07;2.20;;;5.70;99.90;;;;;;4973345;28;20822;-74
2023/02/01 07:42:16;;;;;;;5.03;2.60;;;5.70;99.90;;;;;;4974473;28;20843;-72
2023/02/01 07:44:41;;;;;;;5.70;2.73;;;5.80;99.90;;;;;;4965739;28;20530;-73
2023/02/01 07:47:07;;;;;;;3.27;2.87;;;5.80;99.90;;;;;;4968202;28;20215;-71
2023/02/01 07:49:32;;;;;;;7.30;2.47;;;5.80;99.90;;;;;;4976480;28;20204;-72
2023/02/01 07:51:58;;;;;;;8.40;3.03;;;5.90;99.90;;;;;;4975465;28;20584;-74
2023/02/01 07:54:23;;;;;;;4.40;3.10;;;5.90;99.90;;;;;;4968268;28;20190;-71
2023/02/01 07:56:49;;;;;;;7.70;3.50;;;6.00;99.90;;;;;;4954716;28;20203;-72
2023/02/01 07:59:15;;;;;;;4.30;2.97;;;6.00;99.90;;;;;;4956552;28;20201;-71
2023/02/01 08:01:41;;;;;;;6.07;3.20;;;6.00;99.90;;;;;;4973037;28;20221;-72
2023/02/01 08:04:11;;;;;;;5.10;2.77;;;6.00;99.90;;;;;;4961991;28;20998;-72
2023/02/01 08:06:37;;;;;;;6.73;3.20;;;5.90;99.90;;;;;;4963285;28;20445;-70
2023/02/01 08:09:04;;;;;;;5.33;3.30;;;6.00;99.90;;;;;;4966470;28;20437;-72
2023/02/01 08:11:30;;;;;;;10.43;2.80;;;6.00;99.90;;;;;;4974323;28;20222;-72
2023/02/01 08:13:56;;;;;;;7.50;3.47;;;6.10;99.90;;;;;;4974134;28;21019;-70
2023/02/01 08:16:23;;;;;;;9.40;3.00;;;6.10;99.90;;;;;;4968246;28;20299;-73
2023/02/01 08:18:49;;;;;;;10.20;3.33;;;6.10;99.90;;;;;;4955074;28;20457;-72
2023/02/01 08:21:17;;;;;;;9.00;3.00;;;6.10;99.90;;;;;;4954929;28;20450;-73
2023/02/01 08:23:44;;;;;;;8.10;2.73;;;6.10;99.90;;;;;;4955304;28;20548;-72
2023/02/01 08:26:15;;;;;;;9.37;3.27;;;6.20;99.90;;;;;;4973672;28;20495;-72
2023/02/01 08:28:43;;;;;;;3.70;3.27;;;6.20;99.90;;;;;;4973746;28;20443;-72
2023/02/01 08:31:14;;;;;;;4.23;2.47;;;6.30;99.90;;;;;;4973409;28;20466;-72
2023/02/01 08:33:41;;;;;;;5.80;2.83;;;6.30;99.90;;;;;;4973768;28;20934;-70
2023/02/01 08:36:08;;;;;;;9.10;2.63;;;6.40;99.90;;;;;;4969642;28;20537;-74
2023/02/01 08:38:39;;;;;;;10.30;3.27;;;6.50;99.90;;;;;;4970316;28;20444;-72
2023/02/01 08:41:13;;;;;;;15.33;4.27;;;6.60;99.90;;;;;;4965595;28;20489;-72
2023/02/01 08:43:39;;;;;;;5.63;2.50;;;6.60;99.90;;;;;;4973373;28;20470;-71
2023/02/01 08:46:05;;;;;;;5.43;2.80;;;6.70;99.90;;;;;;4965403;28;20986;-72
2023/02/01 08:48:32;;;;;;;8.37;3.30;;;6.70;99.90;;;;;;4973597;28;20419;-72
2023/02/01 08:51:01;;;;;;;12.30;2.53;;;6.80;99.90;;;;;;4973131;28;20525;-72
2023/02/01 08:53:26;;;;;;;6.87;2.57;;;6.90;99.90;;;;;;4965417;28;20536;-72
2023/02/01 08:55:52;;;;;;;14.67;2.93;;;6.80;99.90;;;;;;4972956;28;21007;-72
2023/02/01 08:58:17;;;;;;;12.60;3.47;;;6.80;99.90;;;;;;4973465;28;20236;-72
2023/02/01 09:00:44;;;;;;;7.53;3.77;;;6.80;99.90;;;;;;4973073;28;20214;-72
2023/02/01 09:03:11;;;;;;;10.90;2.27;;;6.70;99.90;;;;;;4972953;28;20623;-72
2023/02/01 09:05:37;;;;;;;3.10;2.20;;;6.70;99.90;;;;;;4973173;28;20950;-73
2023/02/01 09:08:02;;;;;;;4.53;2.00;;;6.70;99.90;;;;;;4969966;28;20434;-73
2023/02/01 09:10:28;;;;;;;6.57;2.67;;;6.60;99.90;;;;;;4953768;28;20427;-73
2023/02/01 09:12:53;;;;;;;9.27;3.17;;;6.60;99.90;;;;;;4953724;28;20184;-72
2023/02/01 09:15:19;;;;;;;4.07;2.20;;;6.50;99.90;;;;;;4953847;28;20196;-72
2023/02/01 09:17:45;;;;;;;9.17;3.00;;;6.50;99.90;;;;;;4953485;28;20207;-74
2023/02/01 09:20:11;;;;;;;7.93;3.20;;;6.50;99.90;;;;;;4953701;28;20220;-73
2023/02/01 09:22:37;;;;;;;9.17;3.93;;;6.50;99.90;;;;;;4953880;28;20540;-73
2023/02/01 09:25:03;;;;;;;9.30;2.33;;;6.40;99.90;;;;;;4969985;28;20623;-72
2023/02/01 09:27:28;;;;;;;6.53;2.47;;;6.40;99.90;;;;;;4954078;28;20253;-72
2023/02/01 09:29:54;;;;;;;5.40;2.67;;;6.50;99.90;;;;;;4963211;28;20278;-72
2023/02/01 09:32:23;;;;;;;6.00;2.37;;;6.60;99.90;;;;;;4967663;28;20287;-74
2023/02/01 09:34:50;;;;;;;5.90;3.13;;;6.70;99.90;;;;;;4969758;28;20281;-72
2023/02/01 09:37:16;;;;;;;8.83;2.90;;;6.70;99.90;;;;;;4953620;28;20892;-72
2023/02/01 09:39:42;;;;;;;18.30;3.03;;;6.80;99.90;;;;;;4953710;28;20471;-72
2023/02/01 09:42:36;;;;;;;6.50;2.40;;;6.80;99.90;;;;;;4944238;28;20248;-73
2023/02/01 09:45:32;;;;;;;7.70;2.47;;;6.90;99.90;;;;;;4971514;28;21228;-71
2023/02/01 09:48:02;;;;;;;8.03;2.60;;;6.80;99.90;;;;;;4955021;28;20448;-73
2023/02/01 09:50:37;;;;;;;8.03;2.63;;;6.90;99.90;;;;;;4953704;28;20809;-72
2023/02/01 09:53:17;;;;;;;6.30;2.63;;;6.90;99.90;;;;;;4964188;28;20430;-73
2023/02/01 09:55:49;;;;;;;8.63;2.43;;;6.90;99.90;;;;;;4972649;28;20431;-71
2023/02/01 09:58:24;;;;;;;5.00;2.97;;;6.90;99.90;;;;;;4968463;28;20523;-73
2023/02/01 10:00:54;;;;;;;7.50;3.17;;;6.90;99.90;;;;;;4961286;28;20450;-71
2023/02/01 10:03:23;;;;;;;6.60;2.57;;;7.00;99.90;;;;;;4966249;28;20473;-72
2023/02/01 10:06:13;;;;;;;7.60;2.37;;;7.00;99.90;;;;;;4971706;28;20444;-71
2023/02/01 10:08:53;;;;;;;10.17;3.03;;;7.00;99.90;;;;;;4953453;28;20431;-71
2023/02/01 10:11:48;;;;;;;8.20;2.90;;;7.00;99.90;;;;;;4966402;28;20457;-71
2023/02/01 10:14:28;;;;;;;9.97;3.13;;;7.00;99.90;;;;;;4971110;28;20445;-71
2023/02/01 10:17:18;;;;;;;11.63;3.57;;;7.00;99.90;;;;;;4971245;28;20473;-75
2023/02/01 10:20:05;;;;;;;11.60;2.47;;;7.00;99.90;;;;;;4953553;28;20507;-71
2023/02/01 10:22:43;;;;;;;11.50;2.90;;;7.10;99.90;;;;;;4943769;28;20682;-73
2023/02/01 10:25:31;;;;;;;5.73;2.97;;;7.10;99.90;;;;;;4963810;28;20481;-72
2023/02/01 10:28:00;;;;;;;6.00;1.83;;;7.20;99.90;;;;;;4972099;28;20423;-73
2023/02/01 10:30:34;;;;;;;6.10;1.90;;;7.30;99.90;;;;;;4973447;28;20569;-72
2023/02/01 10:33:23;;;;;;;11.37;3.00;;;7.40;99.90;;;;;;4975709;28;20824;-71
2023/02/01 10:35:58;;;;;;;10.33;2.53;;;7.40;99.90;;;;;;4959828;28;20435;-73
2023/02/01 10:38:29;;;;;;;6.47;2.30;;;7.30;99.90;;;;;;4975902;28;20500;-72
2023/02/01 10:41:01;;;;;;;11.43;3.70;;;7.30;99.90;;;;;;4975755;28;20951;-72
2023/02/01 10:43:27;;;;;;;6.13;2.33;;;7.20;99.90;;;;;;4975936;28;21003;-72
2023/02/01 10:45:52;;;;;;;8.20;2.10;;;7.10;99.90;;;;;;4958879;28;20438;-72
2023/02/01 10:48:18;;;;;;;6.17;1.93;;;7.10;99.90;;;;;;4956508;28;20210;-72
2023/02/01 10:51:14;;;;;;;26.77;3.47;;;7.20;99.90;;;;;;4956800;28;20580;-73
2023/02/01 10:53:53;;;;;;;4.93;2.00;;;7.30;99.90;;;;;;4940785;28;20308;-72
2023/02/01 10:56:27;;;;;;;12.20;2.30;;;7.40;99.90;;;;;;4968282;28;20436;-72
2023/02/01 10:59:03;;;;;;;11.23;2.93;;;7.30;99.90;;;;;;4974730;28;20427;-71
2023/02/01 11:01:40;;;;;;;8.80;3.43;;;7.30;99.90;;;;;;4970033;28;20443;-72
2023/02/01 11:04:13;;;;;;;5.10;2.87;;;7.30;99.90;;;;;;4967511;28;20547;-71
2023/02/01 11:06:41;;;;;;;6.50;4.03;;;7.20;99.90;;;;;;4975977;28;20450;-71
2023/02/01 11:09:09;;;;;;;7.13;2.53;;;7.20;99.90;;;;;;4958887;28;20432;-72
2023/02/01 11:12:01;;;;;;;49.47;26.90;;;7.20;99.90;;;;;;4974960;28;20467;-72
2023/02/01 11:14:34;;;;;;;19.10;3.10;;;7.20;99.90;;;;;;4958599;28;20813;-72
2023/02/01 11:17:24;;;;;;;24.93;2.90;;;7.10;99.90;;;;;;4971636;28;20480;-71
2023/02/01 11:20:02;;;;;;;14.73;2.60;;;7.10;99.90;;;;;;4972190;28;20433;-72
2023/02/01 11:22:29;;;;;;;18.37;3.07;;;7.10;99.90;;;;;;4961770;28;20533;-72
2023/02/01 11:24:55;;;;;;;21.20;2.70;;;6.90;99.90;;;;;;4956676;28;20883;-72
2023/02/01 11:27:23;;;;;;;13.50;2.17;;;6.90;99.90;;;;;;4971154;28;20498;-71
2023/02/01 11:29:56;;;;;;;15.33;2.80;;;6.90;99.90;;;;;;4954931;28;20426;-69
2023/02/01 11:32:23;;;;;;;10.87;3.07;;;6.90;99.90;;;;;;4963067;28;20469;-70
2023/02/01 11:34:54;;;;;;;11.43;2.47;;;6.80;99.90;;;;;;4955380;28;20438;-68
2023/02/01 11:37:28;;;;;;;9.60;2.63;;;6.80;99.90;;;;;;4967677;28;20445;-73
2023/02/01 11:39:55;;;;;;;14.13;2.30;;;6.80;99.90;;;;;;4975514;28;20465;-72
2023/02/01 11:42:20;;;;;;;12.07;5.97;;;6.90;99.90;;;;;;4969151;28;20460;-72
2023/02/01 11:44:47;;;;;;;13.90;3.10;;;6.90;99.90;;;;;;4938235;28;20546;-72
2023/02/01 11:47:24;;;;;;;12.43;2.37;;;6.90;99.90;;;;;;4966457;28;20192;-72
2023/02/01 11:49:53;;;;;;;21.67;2.63;;;7.00;99.90;;;;;;4974779;28;20456;-69
2023/02/01 11:52:37;;;;;;;14.40;2.60;;;6.90;99.90;;;;;;4966975;28;20457;-72
2023/02/01 11:55:18;;;;;;;10.30;3.00;;;7.00;99.90;;;;;;4958443;28;20498;-71
2023/02/01 11:58:24;;;;;;;7.37;1.63;;;7.10;99.90;;;;;;4959631;28;20782;-71
2023/02/01 12:00:53;;;;;;;17.63;2.70;;;7.30;99.90;;;;;;4970962;28;20458;-70
2023/02/01 12:03:43;;;;;;;19.20;3.47;;;7.40;99.90;;;;;;4966566;28;20456;-73
2023/02/01 12:06:28;;;;;;;12.77;2.40;;;7.40;99.90;;;;;;4974143;28;20556;-72
2023/02/01 12:09:08;;;;;;;14.82;2.35;;;7.30;99.90;;;;;;4956829;28;20424;-72
2023/02/01 12:11:57;;;;;;;10.17;1.50;;;7.20;99.90;;;;;;4968912;28;20249;-71
2023/02/01 12:14:34;;;;;;;14.70;2.00;;;7.00;99.90;;;;;;4950358;28;20446;-72
2023/02/01 12:17:27;;;;;;;13.20;2.23;;;7.00;99.90;;;;;;4956204;28;20426;-72
2023/02/01 12:20:11;;;;;;;12.37;2.50;;;7.00;99.90;;;;;;4966133;28;20867;-71
2023/02/01 12:22:49;;;;;;;9.90;2.60;;;7.00;99.90;;;;;;4967791;28;20502;-71
2023/02/01 12:25:24;;;;;;;11.93;1.90;;;6.90;99.90;;;;;;4954666;28;20466;-72
2023/02/01 12:27:55;;;;;;;16.10;1.93;;;7.00;99.90;;;;;;4970670;28;20412;-72
2023/02/01 12:30:39;;;;;;;82.33;61.53;;;7.00;99.90;;;;;;4969941;28;20431;-69
2023/02/01 12:33:50;;;;;;;11.97;3.10;;;7.00;99.90;;;;;;4972049;28;20426;-72
2023/02/01 12:36:49;;;;;;;19.33;2.83;;;6.90;99.90;;;;;;4913965;29;20443;-71
2023/02/01 12:39:48;;;;;;;13.43;2.17;;;6.80;99.90;;;;;;4898090;29;20436;-72
2023/02/01 12:42:28;;;;;;;11.53;2.50;;;6.80;99.90;;;;;;4971820;28;20449;-71
2023/02/01 12:45:02;;;;;;;6.67;2.00;;;6.80;99.90;;;;;;4973591;28;20569;-69
2023/02/01 12:47:41;;;;;;;15.70;4.87;;;6.70;99.90;;;;;;4967883;28;20803;-71
2023/02/01 12:50:36;;;;;;;31.07;7.77;;;6.80;99.90;;;;;;4972105;28;20939;-73
2023/02/01 12:53:27;;;;;;;15.40;5.13;;;6.80;99.90;;;;;;4973034;28;20423;-72
2023/02/01 12:55:56;;;;;;;14.83;6.33;;;6.80;99.90;;;;;;4957386;28;20450;-72
2023/02/01 12:58:42;;;;;;;24.87;6.80;;;6.80;99.90;;;;;;4954273;28;20973;-72
2023/02/01 13:01:44;;;;;;;18.43;4.07;;;6.90;99.90;;;;;;4962062;28;20895;-72
2023/02/01 13:04:23;;;;;;;18.50;3.80;;;6.70;99.90;;;;;;4971923;28;20574;-71
2023/02/01 13:07:11;;;;;;;22.57;3.60;;;6.60;99.90;;;;;;4958272;28;20431;-71
2023/02/01 13:09:57;;;;;;;18.10;3.90;;;6.50;99.90;;;;;;4962541;28;20779;-73
2023/02/01 13:12:36;;;;;;;10.50;3.57;;;6.50;99.90;;;;;;4958144;28;20472;-71
2023/02/01 13:15:16;;;;;;;12.00;2.27;;;6.50;99.90;;;;;;4963930;28;20424;-71
2023/02/01 13:17:45;;;;;;;11.50;2.20;;;6.40;99.90;;;;;;4968279;28;20434;-71
2023/02/01 13:20:55;;;;;;;18.53;2.70;;;6.40;99.90;;;;;;4956886;28;20470;-71
2023/02/01 13:23:34;;;;;;;14.83;2.87;;;6.50;99.90;;;;;;4905594;29;20434;-71
2023/02/01 13:25:59;;;;;;;16.40;2.53;;;6.50;99.90;;;;;;4969821;28;20467;-72
2023/02/01 13:28:48;;;;;;;22.00;4.07;;;6.60;99.90;;;;;;4972918;28;20474;-72
2023/02/01 13:31:14;;;;;;;8.97;2.90;;;6.60;99.90;;;;;;4972375;28;20225;-71
2023/02/01 13:34:17;;;;;;;7.10;2.30;;;6.60;99.90;;;;;;4972827;28;20441;-72
2023/02/01 13:37:20;;;;;;;17.40;3.40;;;6.60;99.90;;;;;;4966748;28;20244;-73
2023/02/01 13:40:18;;;;;;;16.17;3.60;;;6.70;99.90;;;;;;4968193;28;20547;-73
2023/02/01 13:42:51;;;;;;;12.03;2.30;;;6.80;99.90;;;;;;4972903;28;20448;-73
2023/02/01 13:45:25;;;;;;;17.33;2.40;;;6.90;99.90;;;;;;4972204;28;20521;-73
2023/02/01 13:47:54;;;;;;;60.70;3.80;;;6.90;99.90;;;;;;4972551;28;20443;-73
2023/02/01 13:50:30;;;;;;;53.93;17.10;;;6.80;99.90;;;;;;4972343;28;20795;-73
2023/02/01 13:53:13;;;;;;;16.07;2.40;;;6.70;99.90;;;;;;4971172;28;20437;-73
2023/02/01 13:55:44;;;;;;;23.20;2.90;;;6.60;99.90;;;;;;4972810;28;20565;-71
2023/02/01 13:58:18;;;;;;;15.03;3.33;;;6.60;99.90;;;;;;4972628;28;20462;-73
2023/02/01 14:00:45;;;;;;;9.33;2.13;;;6.60;99.90;;;;;;4958617;28;20457;-72
2023/02/01 14:03:21;;;;;;;10.23;2.47;;;6.50;99.90;;;;;;4961173;28;20523;-72
2023/02/01 14:05:50;;;;;;;11.33;2.23;;;6.40;99.90;;;;;;4962389;28;21024;-70
2023/02/01 14:08:39;;;;;;;8.23;2.40;;;6.40;99.90;;;;;;4973509;28;20436;-71
2023/02/01 14:11:05;;;;;;;12.63;2.70;;;6.50;99.90;;;;;;4969450;28;20961;-71
2023/02/01 14:13:36;;;;;;;17.70;2.30;;;6.50;99.90;;;;;;4968355;28;20426;-71
2023/02/01 14:16:04;;;;;;;9.37;2.47;;;6.50;99.90;;;;;;4976212;28;20190;-72
2023/02/01 14:18:36;;;;;;;7.93;2.60;;;6.50;99.90;;;;;;4976367;28;20508;-72
2023/02/01 14:21:33;;;;;;;16.07;3.37;;;6.50;99.90;;;;;;4975663;28;20471;-71
2023/02/01 14:23:58;;;;;;;16.47;2.60;;;6.60;99.90;;;;;;4967800;28;20915;-71
2023/02/01 14:26:47;;;;;;;16.80;2.63;;;6.60;99.90;;;;;;4973954;28;20537;-71
2023/02/01 14:29:15;;;;;;;21.63;2.57;;;6.60;99.90;;;;;;4976046;28;20398;-71
2023/02/01 14:31:48;;;;;;;8.50;2.40;;;6.50;99.90;;;;;;4962297;28;20455;-70
2023/02/01 14:34:18;;;;;;;14.10;3.40;;;6.50;99.90;;;;;;4974595;28;20524;-71
2023/02/01 14:36:58;;;;;;;9.13;2.30;;;6.50;99.90;;;;;;4971814;28;20434;-72
2023/02/01 14:39:39;;;;;;;15.97;2.27;;;6.50;99.90;;;;;;4964524;28;20456;-72
2023/02/01 14:42:21;;;;;;;17.70;3.33;;;6.50;99.90;;;;;;4954956;28;20829;-70
2023/02/01 14:44:47;;;;;;;7.87;2.80;;;6.60;99.90;;;;;;4964301;28;20471;-71